sensor_id;sensor_type;location;lat;lon;timestamp;temperature;humidity
27544;DHT22;17996;51.056;3.656;2022-08-01T00:00:38;21.70;99.90
27544;DHT22;17996;51.056;3.656;2022-08-01T00:03:04;21.70;99.90
27544;DHT22;17996;51.056;3.656;2022-08-01T00:05:30;21.70;99.90
27544;DHT22;17996;51.056;3.656;2022-08-01T00:07:56;21.70;99.90
27544;DHT22;17996;51.056;3.656;2022-08-01T00:10:21;21.70;99.90
27544;DHT22;17996;51.056;3.656;2022-08-01T00:12:47;21.60;99.90
27544;DHT22;17996;51.056;3.656;2022-08-01T00:15:15;21.60;99.90
27544;DHT22;17996;51.056;3.656;2022-08-01T00:17:41;21.60;99.90
27544;DHT22;17996;51.056;3.656;2022-08-01T00:20:10;21.60;99.90
27544;DHT22;17996;51.056;3.656;2022-08-01T00:22:35;21.60;99.90
27544;DHT22;17996;51.056;3.656;2022-08-01T00:25:02;21.60;99.90
27544;DHT22;17996;51.056;3.656;2022-08-01T00:27:28;21.50;99.90
27544;DHT22;17996;51.056;3.656;2022-08-01T00:29:54;21.50;99.90
27544;DHT22;17996;51.056;3.656;2022-08-01T00:32:20;21.50;99.90
27544;DHT22;17996;51.056;3.656;2022-08-01T00:34:45;21.50;99.90
27544;DHT22;17996;51.056;3.656;2022-08-01T00:37:11;21.50;99.90
27544;DHT22;17996;51.056;3.656;2022-08-01T00:39:37;21.50;99.90
27544;DHT22;17996;51.056;3.656;2022-08-01T00:42:07;21.40;99.90
27544;DHT22;17996;51.056;3.656;2022-08-01T00:44:34;21.50;99.90
27544;DHT22;17996;51.056;3.656;2022-08-01T00:46:59;21.40;99.90
27544;DHT22;17996;51.056;3.656;2022-08-01T00:49:25;21.40;99.90
27544;DHT22;17996;51.056;3.656;2022-08-01T00:51:51;21.40;99.90
27544;DHT22;17996;51.056;3.656;2022-08-01T00:54:17;21.40;99.90
27544;DHT22;17996;51.056;3.656;2022-08-01T00:56:43;21.40;99.90
27544;DHT22;17996;51.056;3.656;2022-08-01T00:59:09;21.40;99.90
27544;DHT22;17996;51.056;3.656;2022-08-01T01:01:36;21.40;99.90
27544;DHT22;17996;51.056;3.656;2022-08-01T01:04:02;21.30;99.90
27544;DHT22;17996;51.056;3.656;2022-08-01T01:09:43;21.20;99.90
27544;DHT22;17996;51.056;3.656;2022-08-01T01:12:33;21.10;99.90
27544;DHT22;17996;51.056;3.656;2022-08-01T01:17:55;21.00;99.90
27544;DHT22;17996;51.056;3.656;2022-08-01T01:20:26;21.10;99.90
27544;DHT22;17996;51.056;3.656;2022-08-01T01:22:57;21.00;99.90
27544;DHT22;17996;51.056;3.656;2022-08-01T01:25:30;21.00;99.90
27544;DHT22;17996;51.056;3.656;2022-08-01T01:30:50;21.00;99.90
27544;DHT22;17996;51.056;3.656;2022-08-01T01:33:17;20.80;99.90
27544;DHT22;17996;51.056;3.656;2022-08-01T01:35:52;20.80;99.90
27544;DHT22;17996;51.056;3.656;2022-08-01T01:38:21;20.80;99.90
27544;DHT22;17996;51.056;3.656;2022-08-01T01:40:50;20.90;99.90
27544;DHT22;17996;51.056;3.656;2022-08-01T01:43:16;20.80;99.90
27544;DHT22;17996;51.056;3.656;2022-08-01T01:45:44;20.80;99.90
27544;DHT22;17996;51.056;3.656;2022-08-01T01:48:14;20.70;99.90
27544;DHT22;17996;51.056;3.656;2022-08-01T01:50:42;20.70;99.90
27544;DHT22;17996;51.056;3.656;2022-08-01T01:53:10;20.60;99.90
27544;DHT22;17996;51.056;3.656;2022-08-01T01:55:39;20.50;99.90
27544;DHT22;17996;51.056;3.656;2022-08-01T01:58:07;20.40;99.90
27544;DHT22;17996;51.056;3.656;2022-08-01T02:00:35;20.40;99.90
27544;DHT22;17996;51.056;3.656;2022-08-01T02:03:04;20.50;99.90
27544;DHT22;17996;51.056;3.656;2022-08-01T02:05:30;20.50;99.90
27544;DHT22;17996;51.056;3.656;2022-08-01T02:08:01;20.50;99.90
27544;DHT22;17996;51.056;3.656;2022-08-01T02:10:29;20.50;99.90
27544;DHT22;17996;51.056;3.656;2022-08-01T02:12:57;20.50;99.90
27544;DHT22;17996;51.056;3.656;2022-08-01T02:15:26;20.50;99.90
27544;DHT22;17996;51.056;3.656;2022-08-01T02:17:53;20.50;99.90
27544;DHT22;17996;51.056;3.656;2022-08-01T02:20:20;20.50;99.90
27544;DHT22;17996;51.056;3.656;2022-08-01T02:22:55;20.60;99.90
27544;DHT22;17996;51.056;3.656;2022-08-01T02:25:33;20.70;99.90
27544;DHT22;17996;51.056;3.656;2022-08-01T02:28:06;20.80;99.90
27544;DHT22;17996;51.056;3.656;2022-08-01T02:30:37;20.80;99.90
27544;DHT22;17996;51.056;3.656;2022-08-01T02:33:15;20.80;99.90
27544;DHT22;17996;51.056;3.656;2022-08-01T02:35:43;20.80;99.90
27544;DHT22;17996;51.056;3.656;2022-08-01T02:38:10;20.70;99.90
27544;DHT22;17996;51.056;3.656;2022-08-01T02:40:38;20.80;99.90
27544;DHT22;17996;51.056;3.656;2022-08-01T02:43:07;20.70;99.90
27544;DHT22;17996;51.056;3.656;2022-08-01T02:45:35;20.70;99.90
27544;DHT22;17996;51.056;3.656;2022-08-01T02:48:09;20.80;99.90
27544;DHT22;17996;51.056;3.656;2022-08-01T02:50:36;20.80;99.90
27544;DHT22;17996;51.056;3.656;2022-08-01T02:53:02;20.80;99.90
27544;DHT22;17996;51.056;3.656;2022-08-01T02:55:30;20.80;99.90
27544;DHT22;17996;51.056;3.656;2022-08-01T02:57:59;20.90;99.90
27544;DHT22;17996;51.056;3.656;2022-08-01T03:00:26;20.90;99.90
27544;DHT22;17996;51.056;3.656;2022-08-01T03:02:53;20.90;99.90
27544;DHT22;17996;51.056;3.656;2022-08-01T03:05:20;20.90;99.90
27544;DHT22;17996;51.056;3.656;2022-08-01T03:07:48;20.90;99.90
27544;DHT22;17996;51.056;3.656;2022-08-01T03:10:15;20.90;99.90
27544;DHT22;17996;51.056;3.656;2022-08-01T03:12:42;20.90;99.90
27544;DHT22;17996;51.056;3.656;2022-08-01T03:15:10;21.00;99.90
27544;DHT22;17996;51.056;3.656;2022-08-01T03:17:39;21.00;99.90
27544;DHT22;17996;51.056;3.656;2022-08-01T03:20:07;21.00;99.90
27544;DHT22;17996;51.056;3.656;2022-08-01T03:22:34;21.00;99.90
27544;DHT22;17996;51.056;3.656;2022-08-01T03:25:02;20.90;99.90
27544;DHT22;17996;51.056;3.656;2022-08-01T03:27:29;20.90;99.90
27544;DHT22;17996;51.056;3.656;2022-08-01T03:29:56;20.90;99.90
27544;DHT22;17996;51.056;3.656;2022-08-01T03:32:23;20.80;99.90
27544;DHT22;17996;51.056;3.656;2022-08-01T03:34:51;20.70;99.90
27544;DHT22;17996;51.056;3.656;2022-08-01T03:37:29;20.70;99.90
27544;DHT22;17996;51.056;3.656;2022-08-01T03:40:02;20.70;99.90
27544;DHT22;17996;51.056;3.656;2022-08-01T03:42:33;20.70;99.90
27544;DHT22;17996;51.056;3.656;2022-08-01T03:45:10;20.70;99.90
27544;DHT22;17996;51.056;3.656;2022-08-01T03:47:36;20.70;99.90
27544;DHT22;17996;51.056;3.656;2022-08-01T03:50:04;20.70;99.90
27544;DHT22;17996;51.056;3.656;2022-08-01T03:52:32;20.60;99.90
27544;DHT22;17996;51.056;3.656;2022-08-01T03:55:03;20.60;99.90
27544;DHT22;17996;51.056;3.656;2022-08-01T03:57:31;20.60;99.90
27544;DHT22;17996;51.056;3.656;2022-08-01T03:59:58;20.50;99.90
27544;DHT22;17996;51.056;3.656;2022-08-01T04:02:26;20.50;99.90
27544;DHT22;17996;51.056;3.656;2022-08-01T04:04:52;20.50;99.90
27544;DHT22;17996;51.056;3.656;2022-08-01T04:07:25;20.50;99.90
27544;DHT22;17996;51.056;3.656;2022-08-01T04:09:52;20.60;99.90
27544;DHT22;17996;51.056;3.656;2022-08-01T04:12:18;20.60;99.90
27544;DHT22;17996;51.056;3.656;2022-08-01T04:14:44;20.50;99.90
27544;DHT22;17996;51.056;3.656;2022-08-01T04:17:09;20.50;99.90
27544;DHT22;17996;51.056;3.656;2022-08-01T04:19:35;20.60;99.90
27544;DHT22;17996;51.056;3.656;2022-08-01T04:22:01;20.60;99.90
27544;DHT22;17996;51.056;3.656;2022-08-01T04:24:28;20.60;99.90
27544;DHT22;17996;51.056;3.656;2022-08-01T04:26:58;20.60;99.90
27544;DHT22;17996;51.056;3.656;2022-08-01T04:29:26;20.50;99.90
27544;DHT22;17996;51.056;3.656;2022-08-01T04:31:54;20.50;99.90
27544;DHT22;17996;51.056;3.656;2022-08-01T04:34:23;20.50;99.90
27544;DHT22;17996;51.056;3.656;2022-08-01T04:36:52;20.50;99.90
27544;DHT22;17996;51.056;3.656;2022-08-01T04:39:19;20.50;99.90
27544;DHT22;17996;51.056;3.656;2022-08-01T04:41:47;20.50;99.90
27544;DHT22;17996;51.056;3.656;2022-08-01T04:44:13;20.50;99.90
27544;DHT22;17996;51.056;3.656;2022-08-01T04:46:39;20.50;99.90
27544;DHT22;17996;51.056;3.656;2022-08-01T04:49:07;20.60;99.90
27544;DHT22;17996;51.056;3.656;2022-08-01T04:51:34;20.50;99.90
27544;DHT22;17996;51.056;3.656;2022-08-01T04:54:00;20.50;99.90
27544;DHT22;17996;51.056;3.656;2022-08-01T04:56:26;20.50;99.90
27544;DHT22;17996;51.056;3.656;2022-08-01T04:58:52;20.50;99.90
27544;DHT22;17996;51.056;3.656;2022-08-01T05:01:38;20.60;99.90
27544;DHT22;17996;51.056;3.656;2022-08-01T05:04:03;20.50;99.90
27544;DHT22;17996;51.056;3.656;2022-08-01T05:06:29;20.50;99.90
27544;DHT22;17996;51.056;3.656;2022-08-01T05:08:55;20.50;99.90
27544;DHT22;17996;51.056;3.656;2022-08-01T05:11:21;20.50;99.90
27544;DHT22;17996;51.056;3.656;2022-08-01T05:13:48;20.50;99.90
27544;DHT22;17996;51.056;3.656;2022-08-01T05:16:13;20.60;99.90
27544;DHT22;17996;51.056;3.656;2022-08-01T05:18:39;20.50;99.90
27544;DHT22;17996;51.056;3.656;2022-08-01T05:21:05;20.60;99.90
27544;DHT22;17996;51.056;3.656;2022-08-01T05:23:30;20.60;99.90
27544;DHT22;17996;51.056;3.656;2022-08-01T05:25:56;20.70;99.90
27544;DHT22;17996;51.056;3.656;2022-08-01T05:28:21;20.70;99.90
27544;DHT22;17996;51.056;3.656;2022-08-01T05:30:47;20.70;99.90
27544;DHT22;17996;51.056;3.656;2022-08-01T05:33:13;20.80;99.90
27544;DHT22;17996;51.056;3.656;2022-08-01T05:35:38;20.80;99.90
27544;DHT22;17996;51.056;3.656;2022-08-01T05:38:04;20.80;99.90
27544;DHT22;17996;51.056;3.656;2022-08-01T05:40:30;20.80;99.90
27544;DHT22;17996;51.056;3.656;2022-08-01T05:42:55;20.80;99.90
27544;DHT22;17996;51.056;3.656;2022-08-01T05:45:21;20.80;99.90
27544;DHT22;17996;51.056;3.656;2022-08-01T05:47:46;20.90;99.90
27544;DHT22;17996;51.056;3.656;2022-08-01T05:50:12;20.90;99.90
27544;DHT22;17996;51.056;3.656;2022-08-01T05:52:38;20.90;99.90
27544;DHT22;17996;51.056;3.656;2022-08-01T05:55:04;20.90;99.90
27544;DHT22;17996;51.056;3.656;2022-08-01T05:57:30;20.90;99.90
27544;DHT22;17996;51.056;3.656;2022-08-01T05:59:56;20.90;99.90
27544;DHT22;17996;51.056;3.656;2022-08-01T06:02:22;20.90;99.90
27544;DHT22;17996;51.056;3.656;2022-08-01T06:04:47;21.00;99.90
27544;DHT22;17996;51.056;3.656;2022-08-01T06:07:13;21.10;99.90
27544;DHT22;17996;51.056;3.656;2022-08-01T06:09:38;21.20;99.90
27544;DHT22;17996;51.056;3.656;2022-08-01T06:12:04;21.30;99.90
27544;DHT22;17996;51.056;3.656;2022-08-01T06:14:30;21.20;99.90
27544;DHT22;17996;51.056;3.656;2022-08-01T06:16:56;21.30;99.90
27544;DHT22;17996;51.056;3.656;2022-08-01T06:19:21;21.30;99.90
27544;DHT22;17996;51.056;3.656;2022-08-01T06:21:47;21.40;99.90
27544;DHT22;17996;51.056;3.656;2022-08-01T06:24:13;21.50;99.90
27544;DHT22;17996;51.056;3.656;2022-08-01T06:26:38;21.40;99.90
27544;DHT22;17996;51.056;3.656;2022-08-01T06:29:04;21.40;99.90
27544;DHT22;17996;51.056;3.656;2022-08-01T06:31:30;21.40;99.90
27544;DHT22;17996;51.056;3.656;2022-08-01T06:33:56;21.50;99.90
27544;DHT22;17996;51.056;3.656;2022-08-01T06:36:22;21.60;99.90
27544;DHT22;17996;51.056;3.656;2022-08-01T06:38:48;21.50;99.90
27544;DHT22;17996;51.056;3.656;2022-08-01T06:41:14;21.50;99.90
27544;DHT22;17996;51.056;3.656;2022-08-01T06:43:40;21.60;99.90
27544;DHT22;17996;51.056;3.656;2022-08-01T06:46:06;21.50;99.90
27544;DHT22;17996;51.056;3.656;2022-08-01T06:48:32;21.50;99.90
27544;DHT22;17996;51.056;3.656;2022-08-01T06:50:57;21.60;99.90
27544;DHT22;17996;51.056;3.656;2022-08-01T06:53:37;21.60;99.90
27544;DHT22;17996;51.056;3.656;2022-08-01T06:56:04;21.70;99.90
27544;DHT22;17996;51.056;3.656;2022-08-01T06:58:30;21.70;99.90
27544;DHT22;17996;51.056;3.656;2022-08-01T07:00:56;21.70;99.90
27544;DHT22;17996;51.056;3.656;2022-08-01T07:03:22;21.70;99.90
27544;DHT22;17996;51.056;3.656;2022-08-01T07:05:47;21.70;99.90
27544;DHT22;17996;51.056;3.656;2022-08-01T07:08:13;21.70;99.90
27544;DHT22;17996;51.056;3.656;2022-08-01T07:10:40;21.70;99.90
27544;DHT22;17996;51.056;3.656;2022-08-01T07:13:05;21.80;99.90
27544;DHT22;17996;51.056;3.656;2022-08-01T07:15:31;21.90;99.90
27544;DHT22;17996;51.056;3.656;2022-08-01T07:17:57;21.80;99.90
27544;DHT22;17996;51.056;3.656;2022-08-01T07:20:25;21.80;99.90
27544;DHT22;17996;51.056;3.656;2022-08-01T07:22:50;21.80;99.90
27544;DHT22;17996;51.056;3.656;2022-08-01T07:25:16;21.70;99.90
27544;DHT22;17996;51.056;3.656;2022-08-01T07:27:41;21.70;99.90
27544;DHT22;17996;51.056;3.656;2022-08-01T07:30:07;21.60;99.90
27544;DHT22;17996;51.056;3.656;2022-08-01T07:32:33;21.60;99.90
27544;DHT22;17996;51.056;3.656;2022-08-01T07:35:00;21.70;99.90
27544;DHT22;17996;51.056;3.656;2022-08-01T07:37:26;21.80;99.90
27544;DHT22;17996;51.056;3.656;2022-08-01T07:39:53;22.00;99.90
27544;DHT22;17996;51.056;3.656;2022-08-01T07:42:18;22.20;99.90
27544;DHT22;17996;51.056;3.656;2022-08-01T07:44:44;22.30;99.90
27544;DHT22;17996;51.056;3.656;2022-08-01T07:47:11;22.30;99.90
27544;DHT22;17996;51.056;3.656;2022-08-01T07:49:37;22.30;99.90
27544;DHT22;17996;51.056;3.656;2022-08-01T07:52:04;22.10;99.90
27544;DHT22;17996;51.056;3.656;2022-08-01T07:54:33;22.10;99.90
27544;DHT22;17996;51.056;3.656;2022-08-01T07:56:59;22.10;99.90
27544;DHT22;17996;51.056;3.656;2022-08-01T07:59:24;22.10;99.90
27544;DHT22;17996;51.056;3.656;2022-08-01T08:01:50;22.10;99.90
27544;DHT22;17996;51.056;3.656;2022-08-01T08:04:17;22.30;99.90
27544;DHT22;17996;51.056;3.656;2022-08-01T08:06:42;22.40;99.90
27544;DHT22;17996;51.056;3.656;2022-08-01T08:09:13;22.60;99.90
27544;DHT22;17996;51.056;3.656;2022-08-01T08:11:38;22.80;99.90
27544;DHT22;17996;51.056;3.656;2022-08-01T08:14:04;22.90;99.90
27544;DHT22;17996;51.056;3.656;2022-08-01T08:16:29;23.00;99.90
27544;DHT22;17996;51.056;3.656;2022-08-01T08:18:55;23.10;99.90
27544;DHT22;17996;51.056;3.656;2022-08-01T08:21:21;22.90;99.90
27544;DHT22;17996;51.056;3.656;2022-08-01T08:23:47;22.80;99.90
27544;DHT22;17996;51.056;3.656;2022-08-01T08:26:31;22.80;99.90
27544;DHT22;17996;51.056;3.656;2022-08-01T08:28:57;22.90;99.90
27544;DHT22;17996;51.056;3.656;2022-08-01T08:31:22;22.90;99.90
27544;DHT22;17996;51.056;3.656;2022-08-01T08:33:48;22.90;99.90
27544;DHT22;17996;51.056;3.656;2022-08-01T08:36:14;22.90;99.90
27544;DHT22;17996;51.056;3.656;2022-08-01T08:38:40;23.00;99.90
27544;DHT22;17996;51.056;3.656;2022-08-01T08:41:05;23.20;99.90
27544;DHT22;17996;51.056;3.656;2022-08-01T08:43:31;23.50;99.90
27544;DHT22;17996;51.056;3.656;2022-08-01T08:45:57;23.70;99.90
27544;DHT22;17996;51.056;3.656;2022-08-01T08:48:23;23.80;99.90
27544;DHT22;17996;51.056;3.656;2022-08-01T08:50:50;24.00;99.90
27544;DHT22;17996;51.056;3.656;2022-08-01T08:53:16;24.20;99.90
27544;DHT22;17996;51.056;3.656;2022-08-01T08:55:44;24.30;99.90
27544;DHT22;17996;51.056;3.656;2022-08-01T08:58:13;24.40;99.90
27544;DHT22;17996;51.056;3.656;2022-08-01T09:00:40;24.50;99.90
27544;DHT22;17996;51.056;3.656;2022-08-01T09:03:06;24.60;99.90
27544;DHT22;17996;51.056;3.656;2022-08-01T09:05:32;24.80;99.90
27544;DHT22;17996;51.056;3.656;2022-08-01T09:07:57;24.80;99.90
27544;DHT22;17996;51.056;3.656;2022-08-01T09:10:23;24.60;99.90
27544;DHT22;17996;51.056;3.656;2022-08-01T09:13:09;24.40;99.90
27544;DHT22;17996;51.056;3.656;2022-08-01T09:15:52;24.00;99.90
27544;DHT22;17996;51.056;3.656;2022-08-01T09:18:33;24.00;99.90
27544;DHT22;17996;51.056;3.656;2022-08-01T09:23:45;24.20;99.90
27544;DHT22;17996;51.056;3.656;2022-08-01T09:26:13;24.40;99.90
27544;DHT22;17996;51.056;3.656;2022-08-01T09:28:39;24.60;99.90
27544;DHT22;17996;51.056;3.656;2022-08-01T09:31:07;24.80;99.90
27544;DHT22;17996;51.056;3.656;2022-08-01T09:33:54;25.10;99.90
27544;DHT22;17996;51.056;3.656;2022-08-01T09:36:23;25.30;99.90
27544;DHT22;17996;51.056;3.656;2022-08-01T09:38:50;25.30;99.90
27544;DHT22;17996;51.056;3.656;2022-08-01T09:41:17;25.40;99.90
27544;DHT22;17996;51.056;3.656;2022-08-01T09:43:50;25.50;99.90
27544;DHT22;17996;51.056;3.656;2022-08-01T09:46:16;25.60;99.90
27544;DHT22;17996;51.056;3.656;2022-08-01T09:49:05;25.60;99.90
27544;DHT22;17996;51.056;3.656;2022-08-01T09:51:36;25.40;99.90
27544;DHT22;17996;51.056;3.656;2022-08-01T09:54:04;25.40;99.90
27544;DHT22;17996;51.056;3.656;2022-08-01T09:56:41;25.40;99.90
27544;DHT22;17996;51.056;3.656;2022-08-01T09:59:11;25.50;99.90
27544;DHT22;17996;51.056;3.656;2022-08-01T10:01:48;25.30;99.90
27544;DHT22;17996;51.056;3.656;2022-08-01T10:04:19;25.30;99.90
27544;DHT22;17996;51.056;3.656;2022-08-01T10:06:47;25.20;99.90
27544;DHT22;17996;51.056;3.656;2022-08-01T10:09:15;25.10;99.90
27544;DHT22;17996;51.056;3.656;2022-08-01T10:11:43;25.20;99.90
27544;DHT22;17996;51.056;3.656;2022-08-01T10:14:08;25.40;99.90
27544;DHT22;17996;51.056;3.656;2022-08-01T10:16:35;25.50;99.90
27544;DHT22;17996;51.056;3.656;2022-08-01T10:19:04;25.60;99.90
27544;DHT22;17996;51.056;3.656;2022-08-01T10:21:32;25.60;99.90
27544;DHT22;17996;51.056;3.656;2022-08-01T10:24:02;25.60;99.90
27544;DHT22;17996;51.056;3.656;2022-08-01T10:26:29;25.80;99.90
27544;DHT22;17996;51.056;3.656;2022-08-01T10:28:57;25.80;99.90
27544;DHT22;17996;51.056;3.656;2022-08-01T10:31:23;25.80;99.90
27544;DHT22;17996;51.056;3.656;2022-08-01T10:33:50;25.90;99.90
27544;DHT22;17996;51.056;3.656;2022-08-01T10:36:20;26.00;99.90
27544;DHT22;17996;51.056;3.656;2022-08-01T10:38:48;25.90;99.90
27544;DHT22;17996;51.056;3.656;2022-08-01T10:41:15;25.70;99.90
27544;DHT22;17996;51.056;3.656;2022-08-01T10:43:44;25.70;99.90
27544;DHT22;17996;51.056;3.656;2022-08-01T10:46:10;25.70;99.90
27544;DHT22;17996;51.056;3.656;2022-08-01T10:48:39;25.80;99.90
27544;DHT22;17996;51.056;3.656;2022-08-01T10:51:07;25.70;99.90
27544;DHT22;17996;51.056;3.656;2022-08-01T10:53:33;25.60;99.90
27544;DHT22;17996;51.056;3.656;2022-08-01T10:56:01;25.60;99.90
27544;DHT22;17996;51.056;3.656;2022-08-01T10:58:47;25.50;99.90
27544;DHT22;17996;51.056;3.656;2022-08-01T11:03:39;25.30;99.90
27544;DHT22;17996;51.056;3.656;2022-08-01T11:06:05;25.40;99.90
27544;DHT22;17996;51.056;3.656;2022-08-01T11:08:31;25.20;99.90
27544;DHT22;17996;51.056;3.656;2022-08-01T11:11:01;25.30;99.90
27544;DHT22;17996;51.056;3.656;2022-08-01T11:16:31;25.50;99.90
27544;DHT22;17996;51.056;3.656;2022-08-01T11:18:57;25.60;99.90
27544;DHT22;17996;51.056;3.656;2022-08-01T11:27:20;25.90;99.90
27544;DHT22;17996;51.056;3.656;2022-08-01T11:32:56;26.40;99.90
27544;DHT22;17996;51.056;3.656;2022-08-01T11:35:24;26.60;99.90
27544;DHT22;17996;51.056;3.656;2022-08-01T11:37:53;26.80;99.90
27544;DHT22;17996;51.056;3.656;2022-08-01T11:40:24;26.80;99.10
27544;DHT22;17996;51.056;3.656;2022-08-01T11:45:53;26.90;98.00
27544;DHT22;17996;51.056;3.656;2022-08-01T11:48:25;27.10;97.40
27544;DHT22;17996;51.056;3.656;2022-08-01T11:50:52;27.20;97.60
27544;DHT22;17996;51.056;3.656;2022-08-01T11:53:19;27.30;96.70
27544;DHT22;17996;51.056;3.656;2022-08-01T11:55:50;27.30;96.60
27544;DHT22;17996;51.056;3.656;2022-08-01T11:58:25;27.30;97.10
27544;DHT22;17996;51.056;3.656;2022-08-01T12:00:56;27.20;96.50
27544;DHT22;17996;51.056;3.656;2022-08-01T12:03:30;27.30;96.00
27544;DHT22;17996;51.056;3.656;2022-08-01T12:05:58;27.30;94.80
27544;DHT22;17996;51.056;3.656;2022-08-01T12:08:28;27.30;94.80
27544;DHT22;17996;51.056;3.656;2022-08-01T12:10:54;27.30;95.70
27544;DHT22;17996;51.056;3.656;2022-08-01T12:13:21;27.40;96.50
27544;DHT22;17996;51.056;3.656;2022-08-01T12:15:47;27.60;95.60
27544;DHT22;17996;51.056;3.656;2022-08-01T12:18:15;27.60;95.30
27544;DHT22;17996;51.056;3.656;2022-08-01T12:20:43;27.60;95.20
27544;DHT22;17996;51.056;3.656;2022-08-01T12:23:11;27.70;94.80
27544;DHT22;17996;51.056;3.656;2022-08-01T12:25:38;27.60;93.80
27544;DHT22;17996;51.056;3.656;2022-08-01T12:28:10;27.60;94.50
27544;DHT22;17996;51.056;3.656;2022-08-01T12:30:38;27.70;95.40
27544;DHT22;17996;51.056;3.656;2022-08-01T12:33:06;27.80;94.30
27544;DHT22;17996;51.056;3.656;2022-08-01T12:35:33;27.70;93.90
27544;DHT22;17996;51.056;3.656;2022-08-01T12:38:02;27.40;92.70
27544;DHT22;17996;51.056;3.656;2022-08-01T12:40:33;27.10;92.80
27544;DHT22;17996;51.056;3.656;2022-08-01T12:43:07;27.00;93.70
27544;DHT22;17996;51.056;3.656;2022-08-01T12:45:36;26.90;94.10
27544;DHT22;17996;51.056;3.656;2022-08-01T12:48:07;27.00;94.30
27544;DHT22;17996;51.056;3.656;2022-08-01T12:50:34;27.10;94.70
27544;DHT22;17996;51.056;3.656;2022-08-01T12:53:02;27.00;94.40
27544;DHT22;17996;51.056;3.656;2022-08-01T12:55:27;26.70;92.90
27544;DHT22;17996;51.056;3.656;2022-08-01T12:58:07;26.60;93.30
27544;DHT22;17996;51.056;3.656;2022-08-01T13:00:34;26.50;93.30
27544;DHT22;17996;51.056;3.656;2022-08-01T13:08:13;26.30;93.70
27544;DHT22;17996;51.056;3.656;2022-08-01T13:10:39;26.40;94.20
27544;DHT22;17996;51.056;3.656;2022-08-01T13:13:05;26.40;92.80
27544;DHT22;17996;51.056;3.656;2022-08-01T13:15:34;26.30;93.10
27544;DHT22;17996;51.056;3.656;2022-08-01T13:20:48;26.30;92.10
27544;DHT22;17996;51.056;3.656;2022-08-01T13:23:22;26.20;93.30
27544;DHT22;17996;51.056;3.656;2022-08-01T13:25:53;26.30;92.70
27544;DHT22;17996;51.056;3.656;2022-08-01T13:28:27;26.40;92.00
27544;DHT22;17996;51.056;3.656;2022-08-01T13:30:59;26.60;91.40
27544;DHT22;17996;51.056;3.656;2022-08-01T13:33:26;26.80;92.50
27544;DHT22;17996;51.056;3.656;2022-08-01T13:35:54;27.10;93.30
27544;DHT22;17996;51.056;3.656;2022-08-01T13:38:20;27.40;92.40
27544;DHT22;17996;51.056;3.656;2022-08-01T13:41:05;27.50;91.40
27544;DHT22;17996;51.056;3.656;2022-08-01T13:43:31;27.40;88.90
27544;DHT22;17996;51.056;3.656;2022-08-01T13:45:57;27.40;88.30
27544;DHT22;17996;51.056;3.656;2022-08-01T13:48:23;27.50;87.90
27544;DHT22;17996;51.056;3.656;2022-08-01T13:50:49;27.50;89.20
27544;DHT22;17996;51.056;3.656;2022-08-01T13:53:14;27.50;88.20
27544;DHT22;17996;51.056;3.656;2022-08-01T13:55:40;27.30;86.80
27544;DHT22;17996;51.056;3.656;2022-08-01T13:58:06;27.40;87.90
27544;DHT22;17996;51.056;3.656;2022-08-01T14:00:32;27.40;87.70
27544;DHT22;17996;51.056;3.656;2022-08-01T14:02:58;27.60;90.10
27544;DHT22;17996;51.056;3.656;2022-08-01T14:05:24;27.90;90.50
27544;DHT22;17996;51.056;3.656;2022-08-01T14:07:49;28.10;90.10
27544;DHT22;17996;51.056;3.656;2022-08-01T14:10:15;28.20;88.80
27544;DHT22;17996;51.056;3.656;2022-08-01T14:12:41;28.50;88.80
27544;DHT22;17996;51.056;3.656;2022-08-01T14:15:07;28.70;88.20
27544;DHT22;17996;51.056;3.656;2022-08-01T14:17:33;28.90;87.50
27544;DHT22;17996;51.056;3.656;2022-08-01T14:19:58;29.10;86.50
27544;DHT22;17996;51.056;3.656;2022-08-01T14:22:24;29.40;86.90
27544;DHT22;17996;51.056;3.656;2022-08-01T14:24:50;29.50;82.40
27544;DHT22;17996;51.056;3.656;2022-08-01T14:27:16;29.30;81.10
27544;DHT22;17996;51.056;3.656;2022-08-01T14:29:41;29.30;81.30
27544;DHT22;17996;51.056;3.656;2022-08-01T14:32:07;29.10;78.20
27544;DHT22;17996;51.056;3.656;2022-08-01T14:34:33;29.10;80.60
27544;DHT22;17996;51.056;3.656;2022-08-01T14:36:58;29.20;81.00
27544;DHT22;17996;51.056;3.656;2022-08-01T14:39:24;29.50;80.40
27544;DHT22;17996;51.056;3.656;2022-08-01T14:41:50;29.80;77.30
27544;DHT22;17996;51.056;3.656;2022-08-01T14:44:15;30.30;77.30
27544;DHT22;17996;51.056;3.656;2022-08-01T14:46:41;30.70;75.40
27544;DHT22;17996;51.056;3.656;2022-08-01T14:49:09;30.90;75.40
27544;DHT22;17996;51.056;3.656;2022-08-01T14:51:35;30.80;76.20
27544;DHT22;17996;51.056;3.656;2022-08-01T14:54:04;30.40;77.10
27544;DHT22;17996;51.056;3.656;2022-08-01T14:56:29;30.30;76.90
27544;DHT22;17996;51.056;3.656;2022-08-01T14:58:55;29.80;76.00
27544;DHT22;17996;51.056;3.656;2022-08-01T15:01:21;30.00;78.60
27544;DHT22;17996;51.056;3.656;2022-08-01T15:03:46;30.50;77.10
27544;DHT22;17996;51.056;3.656;2022-08-01T15:06:13;30.90;73.50
27544;DHT22;17996;51.056;3.656;2022-08-01T15:08:39;31.30;73.30
27544;DHT22;17996;51.056;3.656;2022-08-01T15:11:05;32.00;73.10
27544;DHT22;17996;51.056;3.656;2022-08-01T15:13:31;32.80;72.00
27544;DHT22;17996;51.056;3.656;2022-08-01T15:15:57;33.40;70.40
27544;DHT22;17996;51.056;3.656;2022-08-01T15:18:23;34.00;68.90
27544;DHT22;17996;51.056;3.656;2022-08-01T15:20:49;34.60;66.50
27544;DHT22;17996;51.056;3.656;2022-08-01T15:23:15;35.00;64.00
27544;DHT22;17996;51.056;3.656;2022-08-01T15:25:41;35.30;62.50
27544;DHT22;17996;51.056;3.656;2022-08-01T15:28:10;35.40;62.20
27544;DHT22;17996;51.056;3.656;2022-08-01T15:30:36;35.90;61.30
27544;DHT22;17996;51.056;3.656;2022-08-01T15:33:02;36.30;60.60
27544;DHT22;17996;51.056;3.656;2022-08-01T15:35:28;36.30;57.70
27544;DHT22;17996;51.056;3.656;2022-08-01T15:37:54;36.50;58.30
27544;DHT22;17996;51.056;3.656;2022-08-01T15:40:19;36.90;57.50
27544;DHT22;17996;51.056;3.656;2022-08-01T15:42:45;36.90;54.70
27544;DHT22;17996;51.056;3.656;2022-08-01T15:45:11;37.20;54.60
27544;DHT22;17996;51.056;3.656;2022-08-01T15:47:41;36.70;52.50
27544;DHT22;17996;51.056;3.656;2022-08-01T15:50:07;36.20;54.10
27544;DHT22;17996;51.056;3.656;2022-08-01T15:52:33;36.20;54.90
27544;DHT22;17996;51.056;3.656;2022-08-01T15:54:59;36.20;54.20
27544;DHT22;17996;51.056;3.656;2022-08-01T15:57:25;35.90;54.50
27544;DHT22;17996;51.056;3.656;2022-08-01T15:59:50;36.00;54.70
27544;DHT22;17996;51.056;3.656;2022-08-01T16:02:16;36.30;54.70
27544;DHT22;17996;51.056;3.656;2022-08-01T16:04:42;36.30;54.50
27544;DHT22;17996;51.056;3.656;2022-08-01T16:07:07;36.30;53.60
27544;DHT22;17996;51.056;3.656;2022-08-01T16:09:33;36.00;52.40